sensor_id;sensor_type;location;lat;lon;timestamp;P1;durP1;ratioP1;P2;durP2;ratioP2
58756;SDS011;44527;47.460;19.016;2023-09-18T13:06:18;10.18;;;7.12;;
58756;SDS011;44527;47.460;19.016;2023-09-18T13:09:22;13.15;;;7.68;;
58756;SDS011;44527;47.460;19.016;2023-09-18T13:12:38;11.90;;;7.20;;
58756;SDS011;44527;47.460;19.016;2023-09-18T13:16:00;11.70;;;7.18;;
58756;SDS011;44527;47.460;19.016;2023-09-18T13:19:08;9.90;;;7.32;;
58756;SDS011;44527;47.460;19.016;2023-09-18T13:22:21;11.12;;;7.37;;
58756;SDS011;44527;47.460;19.016;2023-09-18T13:25:30;18.37;;;7.65;;
58756;SDS011;44527;47.460;19.016;2023-09-18T13:28:37;18.73;;;7.57;;
58756;SDS011;44527;47.460;19.016;2023-09-18T13:31:42;15.15;;;7.22;;
58756;SDS011;44527;47.460;19.016;2023-09-18T13:34:45;13.65;;;6.80;;
58756;SDS011;44527;47.460;19.016;2023-09-18T13:37:49;16.90;;;8.02;;
58756;SDS011;44527;47.460;19.016;2023-09-18T13:40:53;9.40;;;7.20;;
58756;SDS011;44527;47.460;19.016;2023-09-18T13:43:59;11.93;;;7.45;;
58756;SDS011;44527;47.460;19.016;2023-09-18T13:47:04;12.70;;;7.43;;
58756;SDS011;44527;47.460;19.016;2023-09-18T13:50:07;13.62;;;7.30;;
58756;SDS011;44527;47.460;19.016;2023-09-18T13:53:15;10.40;;;7.43;;
58756;SDS011;44527;47.460;19.016;2023-09-18T13:56:18;12.80;;;7.40;;
58756;SDS011;44527;47.460;19.016;2023-09-18T13:59:23;16.75;;;7.57;;
58756;SDS011;44527;47.460;19.016;2023-09-18T14:02:27;22.60;;;7.40;;
58756;SDS011;44527;47.460;19.016;2023-09-18T14:05:30;13.85;;;7.82;;
58756;SDS011;44527;47.460;19.016;2023-09-18T14:08:35;13.73;;;7.37;;
58756;SDS011;44527;47.460;19.016;2023-09-18T14:11:41;15.20;;;7.28;;
58756;SDS011;44527;47.460;19.016;2023-09-18T14:14:44;10.38;;;7.07;;
58756;SDS011;44527;47.460;19.016;2023-09-18T14:17:47;10.18;;;7.70;;
58756;SDS011;44527;47.460;19.016;2023-09-18T14:20:51;15.70;;;7.32;;
58756;SDS011;44527;47.460;19.016;2023-09-18T14:23:55;12.77;;;7.37;;
58756;SDS011;44527;47.460;19.016;2023-09-18T14:26:57;11.85;;;7.80;;
58756;SDS011;44527;47.460;19.016;2023-09-18T14:30:00;15.27;;;7.50;;
58756;SDS011;44527;47.460;19.016;2023-09-18T14:36:11;15.93;;;7.15;;
58756;SDS011;44527;47.460;19.016;2023-09-18T14:39:13;11.73;;;7.03;;
58756;SDS011;44527;47.460;19.016;2023-09-18T14:42:16;13.65;;;7.60;;
58756;SDS011;44527;47.460;19.016;2023-09-18T14:45:19;10.70;;;6.65;;
58756;SDS011;44527;47.460;19.016;2023-09-18T14:48:21;19.35;;;7.50;;
58756;SDS011;44527;47.460;19.016;2023-09-18T14:51:24;14.45;;;6.43;;
58756;SDS011;44527;47.460;19.016;2023-09-18T14:54:27;12.23;;;6.80;;
58756;SDS011;44527;47.460;19.016;2023-09-18T14:57:29;13.82;;;6.55;;
58756;SDS011;44527;47.460;19.016;2023-09-18T15:00:32;11.18;;;6.60;;
58756;SDS011;44527;47.460;19.016;2023-09-18T15:03:35;10.70;;;6.90;;
58756;SDS011;44527;47.460;19.016;2023-09-18T15:06:39;9.48;;;6.80;;
58756;SDS011;44527;47.460;19.016;2023-09-18T15:09:41;17.90;;;7.30;;
58756;SDS011;44527;47.460;19.016;2023-09-18T15:12:43;12.60;;;6.55;;
58756;SDS011;44527;47.460;19.016;2023-09-18T15:15:46;12.00;;;7.03;;
58756;SDS011;44527;47.460;19.016;2023-09-18T15:18:49;16.37;;;6.78;;
58756;SDS011;44527;47.460;19.016;2023-09-18T15:21:59;11.35;;;6.50;;
58756;SDS011;44527;47.460;19.016;2023-09-18T15:25:03;10.10;;;6.85;;
58756;SDS011;44527;47.460;19.016;2023-09-18T15:28:06;18.90;;;6.35;;
58756;SDS011;44527;47.460;19.016;2023-09-18T15:31:09;15.90;;;6.53;;
58756;SDS011;44527;47.460;19.016;2023-09-18T15:34:12;12.07;;;6.62;;
58756;SDS011;44527;47.460;19.016;2023-09-18T15:37:14;10.30;;;6.50;;
58756;SDS011;44527;47.460;19.016;2023-09-18T15:40:18;11.32;;;6.50;;
58756;SDS011;44527;47.460;19.016;2023-09-18T15:43:24;15.07;;;7.07;;
58756;SDS011;44527;47.460;19.016;2023-09-18T15:46:28;14.07;;;6.55;;
58756;SDS011;44527;47.460;19.016;2023-09-18T15:49:32;16.70;;;6.55;;
58756;SDS011;44527;47.460;19.016;2023-09-18T15:52:34;13.23;;;6.57;;
58756;SDS011;44527;47.460;19.016;2023-09-18T15:55:38;21.55;;;6.93;;
58756;SDS011;44527;47.460;19.016;2023-09-18T15:58:40;14.38;;;6.43;;
58756;SDS011;44527;47.460;19.016;2023-09-18T16:01:44;11.45;;;7.20;;
58756;SDS011;44527;47.460;19.016;2023-09-18T16:04:47;9.88;;;6.40;;
58756;SDS011;44527;47.460;19.016;2023-09-18T16:07:50;23.83;;;6.25;;
58756;SDS011;44527;47.460;19.016;2023-09-18T16:10:53;15.25;;;6.62;;
58756;SDS011;44527;47.460;19.016;2023-09-18T16:13:56;9.90;;;6.35;;
58756;SDS011;44527;47.460;19.016;2023-09-18T16:16:59;14.93;;;6.15;;
58756;SDS011;44527;47.460;19.016;2023-09-18T16:20:06;11.77;;;6.32;;
58756;SDS011;44527;47.460;19.016;2023-09-18T16:23:09;14.77;;;6.90;;
58756;SDS011;44527;47.460;19.016;2023-09-18T16:26:12;12.18;;;6.80;;
58756;SDS011;44527;47.460;19.016;2023-09-18T16:29:14;20.00;;;6.75;;
58756;SDS011;44527;47.460;19.016;2023-09-18T16:32:17;13.85;;;6.87;;
58756;SDS011;44527;47.460;19.016;2023-09-18T16:35:21;14.60;;;7.20;;
58756;SDS011;44527;47.460;19.016;2023-09-18T16:38:23;14.50;;;6.30;;
58756;SDS011;44527;47.460;19.016;2023-09-18T16:41:27;11.90;;;7.03;;
58756;SDS011;44527;47.460;19.016;2023-09-18T16:44:30;17.30;;;7.57;;
58756;SDS011;44527;47.460;19.016;2023-09-18T16:47:32;13.15;;;6.62;;
58756;SDS011;44527;47.460;19.016;2023-09-18T16:50:37;13.50;;;6.97;;
58756;SDS011;44527;47.460;19.016;2023-09-18T16:53:40;17.02;;;6.90;;
58756;SDS011;44527;47.460;19.016;2023-09-18T16:56:42;13.20;;;7.50;;
58756;SDS011;44527;47.460;19.016;2023-09-18T16:59:45;13.23;;;7.12;;
58756;SDS011;44527;47.460;19.016;2023-09-18T17:02:48;18.77;;;7.95;;
58756;SDS011;44527;47.460;19.016;2023-09-18T17:05:53;17.00;;;7.00;;
58756;SDS011;44527;47.460;19.016;2023-09-18T17:08:56;14.87;;;7.03;;
58756;SDS011;44527;47.460;19.016;2023-09-18T17:11:58;15.18;;;8.02;;
58756;SDS011;44527;47.460;19.016;2023-09-18T17:15:02;16.87;;;7.62;;
58756;SDS011;44527;47.460;19.016;2023-09-18T17:18:07;14.30;;;7.43;;
58756;SDS011;44527;47.460;19.016;2023-09-18T17:21:10;19.77;;;8.57;;
58756;SDS011;44527;47.460;19.016;2023-09-18T17:24:12;17.87;;;8.10;;
58756;SDS011;44527;47.460;19.016;2023-09-18T17:27:15;16.70;;;7.70;;
58756;SDS011;44527;47.460;19.016;2023-09-18T17:30:17;14.45;;;7.72;;
58756;SDS011;44527;47.460;19.016;2023-09-18T17:33:20;16.48;;;8.18;;
58756;SDS011;44527;47.460;19.016;2023-09-18T17:36:22;15.73;;;7.78;;
58756;SDS011;44527;47.460;19.016;2023-09-18T17:39:25;14.98;;;7.62;;
58756;SDS011;44527;47.460;19.016;2023-09-18T17:42:27;18.27;;;8.15;;
58756;SDS011;44527;47.460;19.016;2023-09-18T17:45:30;17.42;;;7.87;;
58756;SDS011;44527;47.460;19.016;2023-09-18T17:48:36;21.40;;;8.07;;
58756;SDS011;44527;47.460;19.016;2023-09-18T17:51:38;16.05;;;7.37;;
58756;SDS011;44527;47.460;19.016;2023-09-18T17:54:41;14.45;;;7.50;;
58756;SDS011;44527;47.460;19.016;2023-09-18T17:57:43;22.58;;;7.57;;
58756;SDS011;44527;47.460;19.016;2023-09-18T18:00:47;12.93;;;7.12;;
58756;SDS011;44527;47.460;19.016;2023-09-18T18:03:50;19.15;;;7.80;;
58756;SDS011;44527;47.460;19.016;2023-09-18T18:06:53;18.73;;;7.00;;
58756;SDS011;44527;47.460;19.016;2023-09-18T18:09:56;12.77;;;7.45;;
58756;SDS011;44527;47.460;19.016;2023-09-18T18:12:58;18.15;;;7.03;;
58756;SDS011;44527;47.460;19.016;2023-09-18T18:16:01;22.95;;;6.75;;
58756;SDS011;44527;47.460;19.016;2023-09-18T18:19:06;17.08;;;6.68;;
58756;SDS011;44527;47.460;19.016;2023-09-18T18:22:09;14.73;;;7.45;;
58756;SDS011;44527;47.460;19.016;2023-09-18T18:25:12;15.25;;;7.22;;
58756;SDS011;44527;47.460;19.016;2023-09-18T18:28:16;12.37;;;7.68;;
58756;SDS011;44527;47.460;19.016;2023-09-18T18:31:18;15.32;;;6.80;;
58756;SDS011;44527;47.460;19.016;2023-09-18T18:34:22;11.57;;;6.75;;
58756;SDS011;44527;47.460;19.016;2023-09-18T18:37:26;13.52;;;6.32;;
58756;SDS011;44527;47.460;19.016;2023-09-18T18:40:29;17.92;;;6.80;;
58756;SDS011;44527;47.460;19.016;2023-09-18T18:43:32;13.07;;;6.55;;
58756;SDS011;44527;47.460;19.016;2023-09-18T18:46:42;14.35;;;7.40;;
58756;SDS011;44527;47.460;19.016;2023-09-18T18:49:44;16.48;;;7.43;;
58756;SDS011;44527;47.460;19.016;2023-09-18T18:52:46;15.30;;;6.82;;
58756;SDS011;44527;47.460;19.016;2023-09-18T18:55:50;13.48;;;7.00;;
58756;SDS011;44527;47.460;19.016;2023-09-18T18:58:53;10.13;;;6.10;;
58756;SDS011;44527;47.460;19.016;2023-09-18T19:01:56;8.80;;;6.60;;
58756;SDS011;44527;47.460;19.016;2023-09-18T19:04:59;16.60;;;6.53;;
58756;SDS011;44527;47.460;19.016;2023-09-18T19:08:01;14.38;;;7.10;;
58756;SDS011;44527;47.460;19.016;2023-09-18T19:11:04;11.68;;;6.37;;
58756;SDS011;44527;47.460;19.016;2023-09-18T19:14:07;17.62;;;6.93;;
58756;SDS011;44527;47.460;19.016;2023-09-18T19:17:10;11.73;;;6.47;;
58756;SDS011;44527;47.460;19.016;2023-09-18T19:20:12;13.62;;;6.22;;
58756;SDS011;44527;47.460;19.016;2023-09-18T19:23:15;11.50;;;6.57;;
58756;SDS011;44527;47.460;19.016;2023-09-18T19:26:20;13.05;;;6.90;;
58756;SDS011;44527;47.460;19.016;2023-09-18T19:29:23;13.43;;;6.57;;
58756;SDS011;44527;47.460;19.016;2023-09-18T19:32:30;13.45;;;6.62;;
58756;SDS011;44527;47.460;19.016;2023-09-18T19:35:33;17.87;;;6.53;;
58756;SDS011;44527;47.460;19.016;2023-09-18T19:38:36;14.05;;;6.37;;
58756;SDS011;44527;47.460;19.016;2023-09-18T19:41:39;10.40;;;6.18;;
58756;SDS011;44527;47.460;19.016;2023-09-18T19:44:41;9.68;;;6.20;;
58756;SDS011;44527;47.460;19.016;2023-09-18T19:47:47;12.27;;;7.00;;
58756;SDS011;44527;47.460;19.016;2023-09-18T19:50:50;19.05;;;7.25;;
58756;SDS011;44527;47.460;19.016;2023-09-18T19:53:53;12.82;;;6.93;;
58756;SDS011;44527;47.460;19.016;2023-09-18T19:56:56;17.73;;;6.60;;
58756;SDS011;44527;47.460;19.016;2023-09-18T19:59:59;22.62;;;6.32;;
58756;SDS011;44527;47.460;19.016;2023-09-18T20:03:02;16.50;;;6.65;;
58756;SDS011;44527;47.460;19.016;2023-09-18T20:06:05;14.70;;;7.12;;
58756;SDS011;44527;47.460;19.016;2023-09-18T20:09:11;13.40;;;6.57;;
58756;SDS011;44527;47.460;19.016;2023-09-18T20:12:14;13.68;;;6.68;;
58756;SDS011;44527;47.460;19.016;2023-09-18T20:15:17;13.13;;;7.65;;
58756;SDS011;44527;47.460;19.016;2023-09-18T20:18:21;14.13;;;6.25;;
58756;SDS011;44527;47.460;19.016;2023-09-18T20:21:23;13.98;;;7.03;;
58756;SDS011;44527;47.460;19.016;2023-09-18T20:24:26;16.45;;;7.43;;
58756;SDS011;44527;47.460;19.016;2023-09-18T20:27:28;12.05;;;6.53;;
58756;SDS011;44527;47.460;19.016;2023-09-18T20:30:34;14.38;;;6.20;;
58756;SDS011;44527;47.460;19.016;2023-09-18T20:33:38;17.23;;;7.10;;
58756;SDS011;44527;47.460;19.016;2023-09-18T20:36:41;14.30;;;6.80;;
58756;SDS011;44527;47.460;19.016;2023-09-18T20:39:44;25.10;;;7.00;;
58756;SDS011;44527;47.460;19.016;2023-09-18T20:42:46;12.65;;;6.37;;
58756;SDS011;44527;47.460;19.016;2023-09-18T20:45:49;19.25;;;7.07;;
58756;SDS011;44527;47.460;19.016;2023-09-18T20:48:54;16.87;;;6.62;;
58756;SDS011;44527;47.460;19.016;2023-09-18T20:52:05;19.05;;;7.50;;
58756;SDS011;44527;47.460;19.016;2023-09-18T20:55:08;11.73;;;6.53;;
58756;SDS011;44527;47.460;19.016;2023-09-18T20:58:11;10.75;;;6.30;;
58756;SDS011;44527;47.460;19.016;2023-09-18T21:01:15;21.70;;;6.00;;
58756;SDS011;44527;47.460;19.016;2023-09-18T21:04:17;12.45;;;5.40;;
58756;SDS011;44527;47.460;19.016;2023-09-18T21:07:20;19.67;;;7.00;;
58756;SDS011;44527;47.460;19.016;2023-09-18T21:10:24;19.40;;;6.20;;
58756;SDS011;44527;47.460;19.016;2023-09-18T21:13:34;22.83;;;6.47;;
58756;SDS011;44527;47.460;19.016;2023-09-18T21:16:37;16.20;;;5.40;;
58756;SDS011;44527;47.460;19.016;2023-09-18T21:19:41;19.67;;;6.07;;
58756;SDS011;44527;47.460;19.016;2023-09-18T21:22:43;18.12;;;5.62;;
58756;SDS011;44527;47.460;19.016;2023-09-18T21:25:49;11.88;;;5.78;;
58756;SDS011;44527;47.460;19.016;2023-09-18T21:28:52;16.73;;;5.72;;
58756;SDS011;44527;47.460;19.016;2023-09-18T21:31:55;17.20;;;5.57;;
58756;SDS011;44527;47.460;19.016;2023-09-18T21:35:00;10.85;;;5.30;;
58756;SDS011;44527;47.460;19.016;2023-09-18T21:38:05;22.75;;;5.50;;
58756;SDS011;44527;47.460;19.016;2023-09-18T21:41:09;18.27;;;4.80;;
58756;SDS011;44527;47.460;19.016;2023-09-18T21:44:13;15.68;;;4.32;;
58756;SDS011;44527;47.460;19.016;2023-09-18T21:47:17;16.73;;;5.12;;
58756;SDS011;44527;47.460;19.016;2023-09-18T21:50:20;20.73;;;5.28;;
58756;SDS011;44527;47.460;19.016;2023-09-18T21:53:23;30.80;;;5.50;;
58756;SDS011;44527;47.460;19.016;2023-09-18T21:56:26;18.65;;;4.78;;
58756;SDS011;44527;47.460;19.016;2023-09-18T21:59:30;30.12;;;5.65;;
58756;SDS011;44527;47.460;19.016;2023-09-18T22:02:32;25.80;;;4.90;;
58756;SDS011;44527;47.460;19.016;2023-09-18T22:05:39;21.58;;;5.20;;
58756;SDS011;44527;47.460;19.016;2023-09-18T22:08:41;12.80;;;5.03;;
58756;SDS011;44527;47.460;19.016;2023-09-18T22:11:45;20.98;;;5.03;;
58756;SDS011;44527;47.460;19.016;2023-09-18T22:14:47;16.48;;;4.62;;
58756;SDS011;44527;47.460;19.016;2023-09-18T22:17:52;14.80;;;4.68;;
58756;SDS011;44527;47.460;19.016;2023-09-18T22:20:55;16.48;;;5.15;;
58756;SDS011;44527;47.460;19.016;2023-09-18T22:23:58;17.35;;;4.90;;
58756;SDS011;44527;47.460;19.016;2023-09-18T22:27:01;16.33;;;4.90;;
58756;SDS011;44527;47.460;19.016;2023-09-18T22:30:04;14.65;;;4.78;;
58756;SDS011;44527;47.460;19.016;2023-09-18T22:33:08;11.32;;;4.50;;
58756;SDS011;44527;47.460;19.016;2023-09-18T22:36:14;17.55;;;4.78;;
58756;SDS011;44527;47.460;19.016;2023-09-18T22:56:56;11.63;;;4.78;;
58756;SDS011;44527;47.460;19.016;2023-09-18T22:59:59;11.57;;;4.78;;
58756;SDS011;44527;47.460;19.016;2023-09-18T23:03:03;12.55;;;5.07;;
58756;SDS011;44527;47.460;19.016;2023-09-18T23:06:07;13.13;;;5.00;;
58756;SDS011;44527;47.460;19.016;2023-09-18T23:09:10;15.45;;;5.10;;
58756;SDS011;44527;47.460;19.016;2023-09-18T23:12:18;18.17;;;4.60;;
58756;SDS011;44527;47.460;19.016;2023-09-18T23:15:22;14.18;;;5.55;;
58756;SDS011;44527;47.460;19.016;2023-09-18T23:18:25;16.12;;;5.55;;
58756;SDS011;44527;47.460;19.016;2023-09-18T23:21:28;27.87;;;5.75;;
58756;SDS011;44527;47.460;19.016;2023-09-18T23:24:32;14.98;;;5.00;;
58756;SDS011;44527;47.460;19.016;2023-09-18T23:27:35;13.13;;;4.87;;
58756;SDS011;44527;47.460;19.016;2023-09-18T23:30:39;10.85;;;4.47;;
58756;SDS011;44527;47.460;19.016;2023-09-18T23:33:43;11.88;;;5.65;;
58756;SDS011;44527;47.460;19.016;2023-09-18T23:36:49;10.10;;;5.18;;
58756;SDS011;44527;47.460;19.016;2023-09-18T23:39:51;14.98;;;4.93;;
58756;SDS011;44527;47.460;19.016;2023-09-18T23:42:55;10.07;;;4.80;;
58756;SDS011;44527;47.460;19.016;2023-09-18T23:45:58;19.08;;;5.37;;
58756;SDS011;44527;47.460;19.016;2023-09-18T23:49:01;8.30;;;5.07;;
58756;SDS011;44527;47.460;19.016;2023-09-18T23:52:03;8.52;;;4.72;;
58756;SDS011;44527;47.460;19.016;2023-09-18T23:55:06;9.02;;;5.28;;
58756;SDS011;44527;47.460;19.016;2023-09-18T23:58:12;18.30;;;5.20;;
